createdAt,value
2023-05-07T00:02:22.742Z,79.80
2023-05-07T00:04:50.176Z,79.90
2023-05-07T00:07:17.212Z,80.10
2023-05-07T00:09:44.784Z,80.30
2023-05-07T00:12:12.026Z,80.50
2023-05-07T00:14:39.049Z,80.90
2023-05-07T00:17:06.061Z,80.90
2023-05-07T00:19:33.172Z,81.20
2023-05-07T00:22:36.491Z,81.40
2023-05-07T00:25:03.625Z,81.50
2023-05-07T00:27:30.733Z,81.50
2023-05-07T00:29:57.820Z,81.40
2023-05-07T00:32:24.907Z,81.10
2023-05-07T00:34:52.195Z,81.30
2023-05-07T00:37:19.311Z,81.80
2023-05-07T00:39:46.359Z,82.30
2023-05-07T00:42:13.397Z,82.70
2023-05-07T00:44:40.410Z,82.70
2023-05-07T00:47:07.579Z,82.50
2023-05-07T00:49:43.399Z,82.40
2023-05-07T00:52:16.411Z,82.40
2023-05-07T00:54:43.869Z,82.70
2023-05-07T00:57:14.628Z,82.50
2023-05-07T00:59:42.678Z,82.40
2023-05-07T01:02:09.716Z,82.50
2023-05-07T01:04:37.756Z,82.30
2023-05-07T01:07:07.002Z,82.10
2023-05-07T01:09:36.417Z,82.00
2023-05-07T01:12:04.957Z,82.00
2023-05-07T01:14:34.180Z,81.90
2023-05-07T01:17:01.354Z,82.10
2023-05-07T01:19:31.347Z,82.20
2023-05-07T01:22:05.321Z,82.20
2023-05-07T01:24:38.501Z,82.30
2023-05-07T01:27:08.573Z,82.40
2023-05-07T01:29:37.368Z,82.30
2023-05-07T01:32:06.080Z,81.90
2023-05-07T01:34:37.352Z,82.10
2023-05-07T01:37:04.662Z,82.30
2023-05-07T01:39:32.652Z,82.30
2023-05-07T01:42:00.895Z,82.60
2023-05-07T01:44:28.740Z,82.50
2023-05-07T01:46:56.742Z,82.50
2023-05-07T01:49:23.812Z,82.50
2023-05-07T01:52:17.118Z,82.70
2023-05-07T01:54:44.148Z,82.90
2023-05-07T01:57:11.292Z,82.80
2023-05-07T01:59:38.690Z,83.00
2023-05-07T02:02:05.693Z,82.80
2023-05-07T02:04:33.817Z,82.70
2023-05-07T02:07:00.848Z,82.70
2023-05-07T02:09:28.120Z,82.60
2023-05-07T02:11:55.563Z,82.70
2023-05-07T02:14:23.531Z,82.50
2023-05-07T02:16:50.911Z,82.50
2023-05-07T02:19:19.234Z,82.60
2023-05-07T02:21:46.201Z,82.70
2023-05-07T02:24:13.194Z,82.50
2023-05-07T02:26:41.575Z,82.50
2023-05-07T02:29:08.573Z,82.40
2023-05-07T02:31:36.087Z,82.50
2023-05-07T02:34:03.266Z,82.50
2023-05-07T02:36:30.221Z,82.90
2023-05-07T02:39:11.104Z,83.50
2023-05-07T02:41:38.055Z,84.30
2023-05-07T02:44:05.263Z,85.00
2023-05-07T02:46:32.975Z,85.20
2023-05-07T02:49:04.400Z,85.10
2023-05-07T02:51:31.893Z,85.10
2023-05-07T02:54:02.287Z,85.20
2023-05-07T02:56:30.246Z,85.10
2023-05-07T02:58:57.752Z,85.00
2023-05-07T03:01:28.530Z,84.80
2023-05-07T03:04:01.385Z,84.50
2023-05-07T03:06:28.527Z,84.20
2023-05-07T03:08:55.477Z,84.00
2023-05-07T03:11:22.458Z,84.20
2023-05-07T03:13:50.570Z,84.50
2023-05-07T03:16:19.674Z,84.60
2023-05-07T03:18:46.731Z,84.80
2023-05-07T03:21:13.742Z,84.90
2023-05-07T03:23:40.819Z,85.00
2023-05-07T03:26:08.643Z,85.10
2023-05-07T03:28:36.047Z,85.00
2023-05-07T03:31:06.223Z,85.10
2023-05-07T03:33:40.272Z,85.20
2023-05-07T03:36:07.313Z,85.50
2023-05-07T03:38:34.386Z,85.50
2023-05-07T03:41:01.743Z,85.50
2023-05-07T03:43:29.119Z,85.60
2023-05-07T03:46:04.610Z,85.70
2023-05-07T03:48:31.671Z,85.70
2023-05-07T03:51:00.370Z,85.90
2023-05-07T03:53:31.601Z,85.80
2023-05-07T03:55:58.605Z,85.70
2023-05-07T03:58:26.091Z,86.00
2023-05-07T04:00:55.938Z,86.00
2023-05-07T04:03:27.780Z,86.40
2023-05-07T04:05:58.099Z,86.50
2023-05-07T04:08:25.174Z,86.60
2023-05-07T04:10:58.735Z,86.30
2023-05-07T04:13:30.610Z,86.70
2023-05-07T04:15:58.453Z,86.80
2023-05-07T04:18:26.644Z,86.80
2023-05-07T04:20:53.700Z,86.80
2023-05-07T04:23:21.674Z,86.90
2023-05-07T04:25:48.910Z,86.70
2023-05-07T04:28:31.373Z,86.90
2023-05-07T04:30:59.060Z,86.80
2023-05-07T04:33:26.998Z,86.60
2023-05-07T04:35:54.129Z,86.60
2023-05-07T04:38:21.278Z,86.30
2023-05-07T04:40:50.839Z,86.30
2023-05-07T04:43:21.820Z,86.40
2023-05-07T04:45:52.873Z,86.50
2023-05-07T04:48:21.912Z,86.50
2023-05-07T04:50:51.545Z,86.60
2023-05-07T04:53:19.845Z,86.60
2023-05-07T04:55:47.131Z,86.50
2023-05-07T04:58:14.781Z,86.60
2023-05-07T05:00:43.659Z,86.70
2023-05-07T05:03:11.049Z,86.60
2023-05-07T05:05:39.712Z,86.30
2023-05-07T05:08:26.855Z,86.30
2023-05-07T05:10:53.956Z,86.00
2023-05-07T05:13:21.448Z,86.00
2023-05-07T05:15:49.065Z,86.00
2023-05-07T05:18:16.239Z,86.20
2023-05-07T05:20:43.304Z,86.40
2023-05-07T05:23:10.365Z,86.40
2023-05-07T05:25:40.341Z,86.30
2023-05-07T05:28:09.030Z,86.30
2023-05-07T05:30:36.432Z,86.50
2023-05-07T05:33:03.425Z,86.60
2023-05-07T05:35:31.700Z,86.50
2023-05-07T05:38:00.809Z,86.60
2023-05-07T05:40:27.873Z,86.40
2023-05-07T05:42:55.146Z,86.40
2023-05-07T05:45:22.909Z,86.40
2023-05-07T05:47:50.874Z,86.70
2023-05-07T05:50:19.233Z,86.90
2023-05-07T05:52:46.293Z,86.90
2023-05-07T05:55:13.339Z,87.00
2023-05-07T05:57:41.284Z,86.50
2023-05-07T06:00:09.875Z,86.60
2023-05-07T06:02:45.996Z,86.20
2023-05-07T06:05:17.924Z,86.10
2023-05-07T06:07:45.946Z,86.60
2023-05-07T06:10:13.303Z,86.80
2023-05-07T06:12:41.533Z,86.50
2023-05-07T06:15:13.537Z,85.80
2023-05-07T06:17:42.027Z,85.50
2023-05-07T06:20:10.918Z,84.90
2023-05-07T06:22:39.621Z,84.70
2023-05-07T06:25:07.196Z,84.60
2023-05-07T06:27:34.667Z,84.80
2023-05-07T06:30:31.060Z,85.00
2023-05-07T06:32:58.091Z,85.00
2023-05-07T06:35:26.688Z,85.10
2023-05-07T06:37:54.233Z,84.90
2023-05-07T06:40:24.897Z,84.60
2023-05-07T06:42:51.864Z,84.20
2023-05-07T06:45:35.178Z,84.00
2023-05-07T06:48:02.489Z,83.70
2023-05-07T06:50:33.370Z,83.60
2023-05-07T06:53:01.294Z,83.40
2023-05-07T06:55:28.335Z,83.30
2023-05-07T06:57:55.985Z,82.80
2023-05-07T07:00:24.682Z,83.00
2023-05-07T07:02:54.901Z,84.10
2023-05-07T07:05:24.916Z,84.70
2023-05-07T07:07:53.826Z,84.90
2023-05-07T07:10:27.452Z,84.60
2023-05-07T07:12:55.858Z,84.20
2023-05-07T07:15:23.489Z,83.20
2023-05-07T07:17:51.065Z,82.20
2023-05-07T07:20:18.308Z,82.10
2023-05-07T07:22:46.202Z,79.90
2023-05-07T07:25:13.880Z,79.80
2023-05-07T07:27:41.186Z,79.40
2023-05-07T07:30:09.729Z,79.50
2023-05-07T07:32:39.651Z,79.40
2023-05-07T07:35:07.492Z,79.40
2023-05-07T07:37:34.762Z,79.10
2023-05-07T07:40:01.915Z,79.70
2023-05-07T07:42:30.278Z,77.70
2023-05-07T07:44:58.708Z,76.40
2023-05-07T07:47:28.426Z,76.10
2023-05-07T07:49:55.726Z,75.00
2023-05-07T07:52:23.422Z,75.00
2023-05-07T07:54:50.480Z,75.20
2023-05-07T07:57:17.543Z,74.70
2023-05-07T07:59:44.801Z,74.20
2023-05-07T08:02:13.930Z,74.40
2023-05-07T08:04:41.626Z,73.30
2023-05-07T08:07:09.525Z,72.40
2023-05-07T08:09:41.886Z,73.00
2023-05-07T08:12:10.329Z,73.10
2023-05-07T08:14:38.802Z,71.40
2023-05-07T08:17:07.808Z,71.20
2023-05-07T08:19:40.771Z,71.20
2023-05-07T08:22:22.175Z,70.40
2023-05-07T08:24:54.621Z,71.30
2023-05-07T08:27:36.902Z,69.70
2023-05-07T08:30:08.833Z,68.90
2023-05-07T08:32:36.506Z,68.10
2023-05-07T08:35:03.792Z,66.50
2023-05-07T08:37:33.030Z,66.10
2023-05-07T08:40:01.350Z,65.80
2023-05-07T08:42:37.074Z,64.60
2023-05-07T08:45:11.789Z,63.10
2023-05-07T08:47:52.140Z,64.00
2023-05-07T08:50:22.464Z,62.20
2023-05-07T08:52:53.630Z,60.10
2023-05-07T08:55:26.164Z,60.50
2023-05-07T08:57:54.163Z,59.30
2023-05-07T09:00:22.212Z,57.60
2023-05-07T09:02:51.812Z,57.10
2023-05-07T09:05:25.335Z,55.90
2023-05-07T09:07:58.650Z,54.60
2023-05-07T09:10:33.810Z,53.50
2023-05-07T09:13:01.375Z,55.10
2023-05-07T09:15:32.322Z,54.90
2023-05-07T09:18:03.442Z,49.30
2023-05-07T09:20:33.070Z,51.10
2023-05-07T09:23:03.101Z,51.80
2023-05-07T09:25:49.606Z,51.00
2023-05-07T09:28:28.957Z,51.30
2023-05-07T09:31:07.596Z,51.20
2023-05-07T09:33:56.305Z,50.80
2023-05-07T09:36:28.481Z,50.20
2023-05-07T09:39:12.977Z,50.20
2023-05-07T09:46:09.319Z,47.40
2023-05-07T09:48:40.618Z,47.10
2023-05-07T09:51:28.205Z,46.50
2023-05-07T09:53:58.395Z,47.10
2023-05-07T09:56:26.611Z,48.30
2023-05-07T09:59:00.325Z,47.90
2023-05-07T10:01:33.332Z,47.80
2023-05-07T10:04:05.266Z,47.90
2023-05-07T10:06:33.874Z,46.00
2023-05-07T10:09:01.429Z,47.40
2023-05-07T10:11:29.480Z,46.90
2023-05-07T10:13:58.974Z,45.40
2023-05-07T10:16:26.909Z,47.50
2023-05-07T10:18:55.689Z,47.00
2023-05-07T10:21:28.815Z,47.10
2023-05-07T10:24:07.148Z,45.90
2023-05-07T10:26:37.571Z,45.70
2023-05-07T10:29:19.966Z,46.80
2023-05-07T10:32:11.617Z,45.90
2023-05-07T10:34:54.467Z,46.50
2023-05-07T10:37:34.776Z,47.20
2023-05-07T10:40:04.378Z,45.40
2023-05-07T10:42:32.787Z,43.50
2023-05-07T10:45:14.155Z,43.70
2023-05-07T10:48:25.084Z,44.80
2023-05-07T10:51:21.729Z,44.70
2023-05-07T10:54:16.718Z,45.60
2023-05-07T10:56:54.812Z,47.20
2023-05-07T10:59:35.135Z,45.40
2023-05-07T11:02:15.482Z,45.80
2023-05-07T11:05:19.833Z,46.60
2023-05-07T11:07:56.687Z,45.20
2023-05-07T11:10:59.588Z,45.90
2023-05-07T11:13:51.439Z,47.20
2023-05-07T11:16:39.011Z,48.10
2023-05-07T11:19:16.274Z,46.00
2023-05-07T11:21:49.449Z,46.20
2023-05-07T11:24:44.346Z,47.00
2023-05-07T11:27:39.633Z,46.20
2023-05-07T11:30:07.285Z,46.00
2023-05-07T11:33:40.737Z,45.70
2023-05-07T11:36:13.587Z,45.40
2023-05-07T11:38:49.322Z,46.20
2023-05-07T11:41:17.932Z,44.90
2023-05-07T11:44:09.391Z,43.80
2023-05-07T11:51:04.102Z,45.50
2023-05-07T11:54:50.822Z,44.90
2023-05-07T11:57:53.716Z,45.40
2023-05-07T12:12:47.817Z,44.10
2023-05-07T12:15:18.468Z,44.30
2023-05-07T12:18:06.444Z,44.10
2023-05-07T12:20:36.000Z,44.40
2023-05-07T12:23:07.114Z,45.50
2023-05-07T12:25:41.262Z,44.70
2023-05-07T12:28:15.734Z,45.20
2023-05-07T12:30:48.907Z,44.40
2023-05-07T12:33:22.148Z,44.30
2023-05-07T12:35:49.577Z,44.30
2023-05-07T12:38:18.410Z,45.70
2023-05-07T12:40:55.693Z,45.20
2023-05-07T12:43:33.561Z,46.90
2023-05-07T12:46:06.810Z,46.10
2023-05-07T12:48:49.122Z,47.10
2023-05-07T12:51:19.452Z,47.10
2023-05-07T12:53:46.733Z,47.10
2023-05-07T12:56:17.465Z,47.20
2023-05-07T12:58:44.709Z,47.60
2023-05-07T13:01:22.151Z,47.90
2023-05-07T13:03:52.812Z,47.80
2023-05-07T13:06:20.406Z,48.30
2023-05-07T13:08:50.519Z,47.80
2023-05-07T13:11:25.266Z,48.60
2023-05-07T13:13:52.398Z,49.20
2023-05-07T13:16:25.822Z,49.20
2023-05-07T13:19:05.260Z,48.70
2023-05-07T13:26:26.293Z,48.70
2023-05-07T13:29:11.468Z,49.10
2023-05-07T13:32:04.638Z,50.20
2023-05-07T13:39:21.453Z,50.00
2023-05-07T13:42:14.908Z,49.70
2023-05-07T13:45:13.645Z,50.10
2023-05-07T13:48:06.026Z,49.30
2023-05-07T13:50:36.395Z,49.20
2023-05-07T13:53:05.129Z,50.70
2023-05-07T13:55:52.975Z,51.10
2023-05-07T13:59:14.465Z,51.60
2023-05-07T14:02:36.515Z,51.30
2023-05-07T14:05:31.378Z,51.60
2023-05-07T14:08:23.513Z,52.10
2023-05-07T14:10:52.964Z,52.80
2023-05-07T14:13:48.144Z,52.20
2023-05-07T14:16:33.166Z,52.70
2023-05-07T14:23:20.552Z,52.30
2023-05-07T14:25:54.216Z,52.40
2023-05-07T14:28:30.738Z,52.60
2023-05-07T14:31:03.168Z,52.50
2023-05-07T14:33:41.111Z,51.20
2023-05-07T14:36:14.091Z,52.10
2023-05-07T14:38:41.124Z,52.90
2023-05-07T14:41:08.279Z,53.10
2023-05-07T14:43:37.843Z,53.60
2023-05-07T14:46:04.934Z,52.60
2023-05-07T14:48:32.043Z,54.00
2023-05-07T14:51:01.595Z,54.40
2023-05-07T14:53:28.657Z,53.00
2023-05-07T14:55:56.256Z,54.00
2023-05-07T14:58:42.262Z,53.90
2023-05-07T15:01:09.791Z,54.90
2023-05-07T15:03:43.295Z,54.80
2023-05-07T15:06:10.517Z,54.20
2023-05-07T15:08:37.661Z,54.10
2023-05-07T15:11:04.839Z,54.50
2023-05-07T15:14:11.135Z,54.50
2023-05-07T15:16:38.281Z,54.30
2023-05-07T15:19:05.526Z,55.00
2023-05-07T15:21:39.870Z,53.60
2023-05-07T15:24:07.354Z,54.70
2023-05-07T15:26:53.884Z,54.50
2023-05-07T15:29:21.651Z,55.10
2023-05-07T15:31:51.788Z,55.50
2023-05-07T15:34:19.216Z,55.90
2023-05-07T15:36:50.727Z,55.70
2023-05-07T15:39:18.494Z,55.50
2023-05-07T15:41:45.579Z,55.90
2023-05-07T15:44:15.533Z,55.70
2023-05-07T15:46:45.530Z,55.60
2023-05-07T15:49:12.872Z,56.00
2023-05-07T15:51:39.960Z,56.00
2023-05-07T15:54:07.128Z,55.80
2023-05-07T15:56:34.183Z,56.30
2023-05-07T15:59:02.682Z,56.30
2023-05-07T16:01:30.192Z,57.10
2023-05-07T16:03:57.551Z,57.00
2023-05-07T16:06:24.714Z,57.30
2023-05-07T16:09:16.959Z,57.40
2023-05-07T16:11:44.252Z,57.40
2023-05-07T16:14:14.536Z,57.60
2023-05-07T16:16:50.575Z,57.20
2023-05-07T16:19:21.438Z,57.20
2023-05-07T16:21:48.484Z,57.20
2023-05-07T16:24:20.170Z,58.20
2023-05-07T16:26:59.568Z,58.50
2023-05-07T16:29:26.714Z,58.60
2023-05-07T16:31:54.494Z,58.40
2023-05-07T16:34:23.449Z,58.50
2023-05-07T16:37:23.489Z,59.40
2023-05-07T16:39:50.641Z,60.10
2023-05-07T16:42:17.769Z,59.80
2023-05-07T16:44:44.851Z,60.20
2023-05-07T16:47:12.014Z,60.60
2023-05-07T16:49:39.057Z,61.30
2023-05-07T16:52:06.200Z,61.80
2023-05-07T16:54:33.294Z,62.10
2023-05-07T16:58:10.837Z,62.80
2023-05-07T17:00:49.121Z,63.80
2023-05-07T17:03:17.760Z,63.90
2023-05-07T17:05:45.113Z,65.00
2023-05-07T17:08:13.902Z,66.10
2023-05-07T17:10:42.308Z,66.90
2023-05-07T17:13:09.638Z,67.50
2023-05-07T17:15:38.444Z,68.50
2023-05-07T17:18:05.948Z,68.90
2023-05-07T17:20:33.076Z,69.90
2023-05-07T17:23:00.134Z,70.30
2023-05-07T17:25:29.770Z,71.00
2023-05-07T17:27:56.780Z,71.50
2023-05-07T17:30:23.874Z,72.20
2023-05-07T17:32:50.901Z,72.40
2023-05-07T17:35:18.295Z,72.70
2023-05-07T17:38:00.071Z,73.30
2023-05-07T17:40:29.602Z,75.00
2023-05-07T17:42:58.857Z,76.30
2023-05-07T17:45:26.668Z,77.70
2023-05-07T17:47:53.716Z,79.70
2023-05-07T17:50:21.469Z,80.10
2023-05-07T17:52:48.846Z,81.90
2023-05-07T17:55:15.988Z,82.50
2023-05-07T17:57:44.044Z,82.90
2023-05-07T18:00:11.816Z,83.80
2023-05-07T18:02:39.816Z,84.80
2023-05-07T18:05:08.987Z,84.30
2023-05-07T18:07:36.621Z,85.10
2023-05-07T18:10:04.043Z,84.80
2023-05-07T18:12:31.258Z,85.30
2023-05-07T18:14:58.222Z,85.90
2023-05-07T18:17:26.601Z,85.80
2023-05-07T18:19:55.432Z,86.10
2023-05-07T18:22:22.688Z,86.10
2023-05-07T18:24:51.111Z,86.70
2023-05-07T18:27:37.194Z,87.10
2023-05-07T18:30:04.687Z,87.40
2023-05-07T18:32:31.729Z,88.00
2023-05-07T18:34:58.750Z,88.80
2023-05-07T18:37:26.813Z,89.40
2023-05-07T18:39:54.404Z,89.60
2023-05-07T18:42:21.890Z,90.70
2023-05-07T18:44:49.402Z,91.00
2023-05-07T18:47:18.047Z,91.50
2023-05-07T18:49:45.605Z,92.30
2023-05-07T18:52:12.554Z,94.00
2023-05-07T18:54:40.195Z,94.60
2023-05-07T18:57:07.153Z,95.20
2023-05-07T18:59:34.258Z,94.90
2023-05-07T19:02:02.496Z,95.50
2023-05-07T19:04:31.540Z,96.10
2023-05-07T19:07:03.049Z,96.10
2023-05-07T19:09:30.069Z,96.50
2023-05-07T19:11:58.881Z,96.80
2023-05-07T19:14:26.395Z,97.10
2023-05-07T19:16:53.695Z,97.30
2023-05-07T19:19:21.326Z,97.70
2023-05-07T19:21:48.790Z,98.10
2023-05-07T19:24:16.357Z,98.80
2023-05-07T19:26:43.397Z,99.20
2023-05-07T19:29:17.292Z,99.30
2023-05-07T19:31:45.678Z,99.60
2023-05-07T19:34:15.546Z,99.70
2023-05-07T19:36:42.490Z,99.30
2023-05-07T19:39:09.960Z,99.20
2023-05-07T19:41:37.845Z,98.70
2023-05-07T19:44:06.167Z,98.00
2023-05-07T19:46:34.429Z,97.30
2023-05-07T19:49:03.031Z,97.10
2023-05-07T19:51:32.863Z,96.20
2023-05-07T19:54:00.644Z,95.20
2023-05-07T19:56:28.054Z,94.80
2023-05-07T19:58:55.121Z,94.70
2023-05-07T20:01:22.255Z,94.50
2023-05-07T20:03:50.054Z,94.00
2023-05-07T20:06:17.301Z,93.80
2023-05-07T20:08:45.975Z,93.70
2023-05-07T20:11:15.860Z,93.60
2023-05-07T20:13:45.030Z,93.40
2023-05-07T20:16:12.618Z,93.50
2023-05-07T20:18:39.724Z,93.20
2023-05-07T20:21:11.983Z,93.40
2023-05-07T20:23:40.404Z,93.70
2023-05-07T20:26:07.399Z,93.50
2023-05-07T20:28:34.656Z,93.80
2023-05-07T20:31:02.310Z,93.90
2023-05-07T20:33:30.329Z,93.70
2023-05-07T20:36:00.145Z,94.00
2023-05-07T20:38:27.635Z,93.50
2023-05-07T20:40:54.603Z,93.30
2023-05-07T20:43:21.648Z,93.50
2023-05-07T20:45:48.696Z,93.60
2023-05-07T20:48:15.644Z,93.40
2023-05-07T20:50:42.602Z,93.60
2023-05-07T20:53:09.553Z,93.20
2023-05-07T20:55:36.539Z,93.20
2023-05-07T20:58:03.513Z,93.90
2023-05-07T21:00:30.466Z,93.80
2023-05-07T21:02:57.425Z,93.70
2023-05-07T21:05:24.484Z,93.40
2023-05-07T21:07:51.398Z,93.10
2023-05-07T21:10:18.380Z,93.30
2023-05-07T21:12:45.476Z,93.40
2023-05-07T21:15:12.473Z,93.40
2023-05-07T21:17:39.872Z,93.40
2023-05-07T21:20:07.999Z,93.60
2023-05-07T21:22:35.136Z,93.40
2023-05-07T21:25:02.166Z,93.50
2023-05-07T21:27:29.310Z,93.70
2023-05-07T21:30:03.193Z,93.30
2023-05-07T21:32:30.599Z,93.40
2023-05-07T21:35:52.292Z,93.40
2023-05-07T21:38:19.268Z,93.30
2023-05-07T21:40:46.308Z,93.20
2023-05-07T21:43:13.262Z,93.30
2023-05-07T21:45:41.204Z,93.40
2023-05-07T21:48:23.628Z,93.50
2023-05-07T21:51:04.041Z,93.70
2023-05-07T21:53:31.347Z,93.80
2023-05-07T21:56:00.270Z,93.80
2023-05-07T21:58:27.613Z,94.10
2023-05-07T22:00:54.767Z,94.00
2023-05-07T22:03:21.863Z,94.10
2023-05-07T22:05:49.955Z,94.00
2023-05-07T22:08:17.187Z,94.00
2023-05-07T22:10:44.285Z,93.80
2023-05-07T22:13:11.314Z,93.90
2023-05-07T22:15:49.667Z,93.60
2023-05-07T22:18:23.584Z,93.60
2023-05-07T22:20:53.689Z,94.00
2023-05-07T22:23:20.755Z,94.40
2023-05-07T22:25:47.877Z,94.20
2023-05-07T22:28:14.820Z,94.30
2023-05-07T22:30:41.817Z,94.60
2023-05-07T22:33:08.783Z,94.40
2023-05-07T22:35:35.755Z,94.20
2023-05-07T22:38:02.762Z,94.20
2023-05-07T22:40:29.741Z,93.80
2023-05-07T22:42:56.707Z,93.70
2023-05-07T22:45:23.645Z,93.90
2023-05-07T22:47:50.679Z,93.90
2023-05-07T22:50:18.275Z,94.10
2023-05-07T22:52:45.237Z,93.80
2023-05-07T22:55:13.387Z,93.90
2023-05-07T22:57:40.499Z,94.10
2023-05-07T23:00:10.034Z,94.40
2023-05-07T23:02:37.587Z,94.50
2023-05-07T23:05:05.016Z,94.50
2023-05-07T23:07:31.926Z,94.70
2023-05-07T23:09:59.082Z,94.70
2023-05-07T23:12:26.024Z,94.70
2023-05-07T23:14:52.976Z,94.60
2023-05-07T23:17:19.927Z,94.70
2023-05-07T23:19:46.931Z,94.60
2023-05-07T23:22:13.931Z,94.60
2023-05-07T23:24:40.909Z,94.60
2023-05-07T23:27:08.423Z,94.40
2023-05-07T23:29:35.575Z,94.40
2023-05-07T23:32:02.704Z,94.50
2023-05-07T23:34:29.672Z,94.60
2023-05-07T23:36:56.606Z,94.10
2023-05-07T23:39:23.558Z,94.30
2023-05-07T23:41:50.514Z,94.60
2023-05-07T23:44:17.564Z,94.90
2023-05-07T23:46:44.892Z,95.30
2023-05-07T23:49:11.970Z,95.40
2023-05-07T23:51:38.941Z,95.30
2023-05-07T23:54:06.700Z,95.40
2023-05-07T23:56:33.948Z,95.80
2023-05-07T23:59:01.052Z,95.70
